Time;durP1;ratioP1;P1;durP2;ratioP2;P2;SDS_P1;SDS_P2;PMS_P1;PMS_P2;Temp;Humidity;BMP_temperature;BMP_pressure;BME280_temperature;BME280_humidity;BME280_pressure;Samples;Min_cycle;Max_cycle;Signal;HPM_P1;HPM_P2
2023/06/25 00:01:31;;;;;;;7.53;5.90;;;;;;;19.08;80.93;101362.53;5003332;28;20655;-82
2023/06/25 00:03:59;;;;;;;9.63;5.70;;;;;;;19.06;80.94;101363.66;4999578;28;20215;-81
2023/06/25 00:06:25;;;;;;;7.20;5.53;;;;;;;19.02;81.26;101362.19;5000538;28;20295;-81
2023/06/25 00:08:52;;;;;;;7.60;6.00;;;;;;;18.98;81.11;101368.88;5001313;28;20207;-81
2023/06/25 00:11:18;;;;;;;6.53;5.37;;;;;;;18.91;81.18;101360.44;5007489;28;20228;-81
2023/06/25 00:13:45;;;;;;;7.07;5.53;;;;;;;18.88;81.87;101359.84;4996649;28;20227;-81
2023/06/25 00:16:11;;;;;;;9.03;5.17;;;;;;;18.86;82.25;101364.53;4999638;28;20237;-81
2023/06/25 00:18:38;;;;;;;8.53;7.00;;;;;;;18.83;82.54;101360.25;5001226;28;20214;-81
2023/06/25 00:21:07;;;;;;;11.43;6.63;;;;;;;18.82;82.83;101354.97;5003520;28;20230;-81
2023/06/25 00:23:34;;;;;;;8.77;6.87;;;;;;;18.78;82.83;101362.50;5000766;28;20210;-81
2023/06/25 00:26:00;;;;;;;8.13;6.60;;;;;;;18.75;83.76;101362.78;5003529;28;20202;-81
2023/06/25 00:28:27;;;;;;;7.00;6.23;;;;;;;18.76;84.44;101367.19;5003623;28;20575;-80
2023/06/25 00:30:53;;;;;;;7.43;6.70;;;;;;;18.76;84.62;101353.69;5000135;28;20255;-82
2023/06/25 00:33:20;;;;;;;7.20;6.60;;;;;;;18.78;84.69;101348.16;5002202;28;20580;-81
2023/06/25 00:36:06;;;;;;;7.20;6.53;;;;;;;18.80;84.66;101354.28;5005931;28;20602;-81
2023/06/25 00:38:37;;;;;;;7.20;6.50;;;;;;;18.81;84.74;101356.00;5005037;28;20268;-81
2023/06/25 00:41:03;;;;;;;8.40;7.60;;;;;;;18.82;85.03;101363.06;5002947;28;20801;-81
2023/06/25 00:43:30;;;;;;;7.53;6.73;;;;;;;18.81;84.88;101356.81;4998920;28;20227;-79
2023/06/25 00:45:57;;;;;;;7.03;6.33;;;;;;;18.81;85.02;101350.59;5004981;28;20205;-81
2023/06/25 00:48:24;;;;;;;9.23;7.37;;;;;;;18.80;85.37;101351.59;5009656;28;20213;-81
2023/06/25 00:50:51;;;;;;;8.20;7.50;;;;;;;18.78;85.25;101356.25;5008334;28;20231;-79
2023/06/25 00:53:18;;;;;;;8.90;8.00;;;;;;;18.78;85.60;101350.84;4998387;28;20219;-79
2023/06/25 00:55:50;;;;;;;8.13;7.33;;;;;;;18.77;85.54;101359.94;5002401;28;20226;-80
2023/06/25 00:58:20;;;;;;;8.43;7.60;;;;;;;18.72;85.65;101350.41;5009402;28;20212;-81
2023/06/25 01:00:47;;;;;;;8.33;7.63;;;;;;;18.69;85.51;101347.09;5001210;28;20282;-80
2023/06/25 01:03:26;;;;;;;7.80;7.00;;;;;;;18.63;85.29;101345.78;5001225;28;20214;-81
2023/06/25 01:05:58;;;;;;;8.13;7.03;;;;;;;18.54;84.71;101338.47;5000261;28;20217;-80
2023/06/25 01:08:28;;;;;;;8.53;6.93;;;;;;;18.45;84.67;101341.91;4998882;28;20835;-80
2023/06/25 01:10:57;;;;;;;10.03;6.70;;;;;;;18.34;84.76;101345.53;5005233;28;20237;-79
2023/06/25 01:13:24;;;;;;;7.57;6.70;;;;;;;18.26;85.62;101341.81;5004505;28;20251;-80
2023/06/25 01:15:51;;;;;;;7.57;6.67;;;;;;;18.20;86.31;101337.78;5008516;28;20236;-80
2023/06/25 01:18:17;;;;;;;7.20;6.50;;;;;;;18.17;86.78;101335.34;5005011;28;20585;-80
2023/06/25 01:20:44;;;;;;;7.07;6.37;;;;;;;18.14;86.83;101340.13;5001750;28;20224;-80
2023/06/25 01:23:12;;;;;;;7.90;6.53;;;;;;;18.10;86.96;101338.66;5000790;28;20211;-80
2023/06/25 01:25:39;;;;;;;8.83;6.70;;;;;;;18.08;87.27;101340.66;5004760;28;20702;-80
2023/06/25 01:28:05;;;;;;;7.10;6.40;;;;;;;18.04;87.76;101340.91;5009414;28;20212;-80
2023/06/25 01:30:32;;;;;;;8.83;6.73;;;;;;;17.99;87.75;101337.75;5002182;28;20224;-80
2023/06/25 01:32:59;;;;;;;7.90;6.70;;;;;;;17.97;87.87;101336.16;5002970;28;20212;-80
2023/06/25 01:35:27;;;;;;;8.20;5.87;;;;;;;17.94;87.83;101333.69;5010032;28;20227;-81
2023/06/25 01:37:54;;;;;;;8.23;6.60;;;;;;;17.89;88.01;101334.09;5004199;28;20592;-80
2023/06/25 01:40:22;;;;;;;8.13;6.90;;;;;;;17.88;88.61;101326.16;4998570;28;20698;-81
2023/06/25 01:42:49;;;;;;;10.33;6.93;;;;;;;17.86;88.71;101326.28;5005629;28;20208;-81
2023/06/25 01:45:15;;;;;;;7.40;6.30;;;;;;;17.87;88.83;101322.59;5004696;28;20210;-81
2023/06/25 01:47:42;;;;;;;7.57;6.80;;;;;;;17.87;88.91;101330.69;5005023;28;20210;-82
2023/06/25 01:50:09;;;;;;;11.77;6.67;;;;;;;17.89;89.19;101322.47;5000037;28;20252;-82
2023/06/25 01:52:36;;;;;;;6.87;6.17;;;;;;;17.89;89.09;101323.34;5003735;28;20207;-81
2023/06/25 01:55:06;;;;;;;8.20;6.47;;;;;;;17.89;89.05;101320.63;5000454;28;20210;-81
2023/06/25 01:57:38;;;;;;;8.70;6.77;;;;;;;17.88;88.76;101312.69;5004093;28;20210;-81
2023/06/25 02:00:11;;;;;;;6.90;6.17;;;;;;;17.87;88.43;101321.75;5005273;28;20220;-81
2023/06/25 02:02:37;;;;;;;10.10;6.60;;;;;;;17.85;88.77;101321.00;5005896;28;20203;-81
2023/06/25 02:05:04;;;;;;;7.20;6.27;;;;;;;17.84;88.81;101317.47;5005781;28;20559;-81
2023/06/25 02:07:31;;;;;;;8.77;6.13;;;;;;;17.82;88.56;101314.03;5001529;28;20753;-81
2023/06/25 02:09:57;;;;;;;7.80;6.00;;;;;;;17.80;88.58;101307.06;5005727;28;20594;-81
2023/06/25 02:12:24;;;;;;;7.53;5.83;;;;;;;17.79;88.70;101310.72;5006086;28;20222;-81
2023/06/25 02:14:52;;;;;;;6.90;6.30;;;;;;;17.76;88.87;101305.59;5004715;28;20215;-81
2023/06/25 02:17:18;;;;;;;6.90;5.97;;;;;;;17.76;89.12;101303.75;5005170;28;20228;-81
2023/06/25 02:19:45;;;;;;;8.30;6.60;;;;;;;17.74;89.32;101300.31;5006839;28;20708;-81
2023/06/25 02:22:11;;;;;;;7.00;6.37;;;;;;;17.75;89.27;101304.75;5004934;28;20215;-81
2023/06/25 02:24:41;;;;;;;6.97;6.30;;;;;;;17.75;89.36;101299.34;5003818;28;20210;-81
2023/06/25 02:27:07;;;;;;;7.33;6.50;;;;;;;17.75;89.53;101302.03;5006581;28;20295;-81
2023/06/25 02:29:34;;;;;;;8.37;6.90;;;;;;;17.75;89.59;101302.03;5000218;28;20227;-81
2023/06/25 02:32:01;;;;;;;6.93;6.23;;;;;;;17.75;89.70;101293.97;5000937;28;20692;-81
2023/06/25 02:34:28;;;;;;;7.47;6.40;;;;;;;17.73;89.57;101298.66;5006333;28;20208;-80
2023/06/25 02:36:54;;;;;;;12.20;6.40;;;;;;;17.69;89.26;101298.03;5003181;28;20233;-80
2023/06/25 02:39:21;;;;;;;7.83;6.03;;;;;;;17.63;89.01;101297.66;5001137;28;20215;-81
2023/06/25 02:41:47;;;;;;;9.63;7.03;;;;;;;17.56;89.04;101294.59;5003360;28;20210;-81
2023/06/25 02:44:14;;;;;;;7.80;6.30;;;;;;;17.53;89.80;101307.47;5003708;28;20232;-81
2023/06/25 02:46:40;;;;;;;7.00;6.27;;;;;;;17.51;89.62;101304.06;5006641;28;20282;-81
2023/06/25 02:49:08;;;;;;;7.90;5.93;;;;;;;17.47;89.47;101299.91;4997849;28;20583;-81
2023/06/25 02:51:34;;;;;;;6.80;6.20;;;;;;;17.43;89.48;101295.72;5008490;28;20223;-82
2023/06/25 02:54:01;;;;;;;8.40;6.40;;;;;;;17.39;89.50;101305.03;5003656;28;20218;-81
2023/06/25 02:56:27;;;;;;;7.83;6.10;;;;;;;17.35;89.74;101301.75;5000933;28;20226;-82
2023/06/25 02:58:54;;;;;;;7.53;6.00;;;;;;;17.29;89.81;101289.66;5002113;28;20206;-82
2023/06/25 03:01:20;;;;;;;9.20;6.40;;;;;;;17.25;89.66;101296.25;5005325;28;20732;-81
2023/06/25 03:03:47;;;;;;;7.40;6.70;;;;;;;17.22;90.02;101290.25;5004608;28;20219;-81
2023/06/25 03:06:15;;;;;;;7.13;6.23;;;;;;;17.19;90.45;101298.59;5007721;28;20202;-82
2023/06/25 03:08:41;;;;;;;11.40;7.17;;;;;;;17.14;90.76;101296.28;5000262;28;20221;-81
2023/06/25 03:11:07;;;;;;;7.73;6.50;;;;;;;17.13;91.38;101297.25;5004250;28;20233;-81
2023/06/25 03:13:34;;;;;;;9.70;7.40;;;;;;;17.12;91.61;101303.63;5003280;28;20636;-81
2023/06/25 03:16:00;;;;;;;9.67;6.70;;;;;;;17.11;91.86;101296.53;5005521;28;20714;-81
2023/06/25 03:18:27;;;;;;;6.90;6.30;;;;;;;17.11;92.37;101290.28;5000515;28;21631;-81
2023/06/25 03:20:53;;;;;;;7.43;6.20;;;;;;;17.11;92.58;101285.75;5005954;28;20238;-80
2023/06/25 03:23:21;;;;;;;10.90;7.67;;;;;;;17.12;92.82;101295.53;5000675;28;20214;-81
2023/06/25 03:25:48;;;;;;;8.47;7.13;;;;;;;17.12;92.86;101295.53;5003470;28;20668;-81
2023/06/25 03:28:14;;;;;;;8.10;7.30;;;;;;;17.12;92.97;101292.00;5001213;28;20218;-80
2023/06/25 03:30:41;;;;;;;7.77;7.03;;;;;;;17.11;93.18;101292.97;5001814;28;20713;-81
2023/06/25 03:33:07;;;;;;;9.47;7.27;;;;;;;17.07;93.02;101292.34;4999352;28;20220;-80
2023/06/25 03:35:34;;;;;;;7.43;6.60;;;;;;;17.03;92.93;101288.19;4999483;28;20201;-81
2023/06/25 03:38:00;;;;;;;8.27;7.47;;;;;;;16.96;92.78;101289.69;5002947;28;20217;-81
2023/06/25 03:40:28;;;;;;;7.90;7.17;;;;;;;16.91;93.45;101287.34;5002301;28;20267;-81
2023/06/25 03:42:54;;;;;;;8.57;6.67;;;;;;;16.86;93.95;101280.63;5000357;28;20210;-81
2023/06/25 03:45:21;;;;;;;9.27;7.23;;;;;;;16.83;94.33;101279.03;5001214;28;20296;-81
2023/06/25 03:47:47;;;;;;;10.17;7.03;;;;;;;16.80;94.75;101275.75;4998372;28;20665;-81
2023/06/25 03:50:13;;;;;;;12.27;7.70;;;;;;;16.77;95.30;101270.59;5002062;28;20888;-80
2023/06/25 03:52:40;;;;;;;9.60;6.73;;;;;;;16.77;95.35;101281.34;5006596;28;20652;-80
2023/06/25 03:55:07;;;;;;;8.97;6.57;;;;;;;16.75;95.80;101269.84;4998834;28;20659;-80
2023/06/25 03:57:35;;;;;;;10.30;6.80;;;;;;;16.75;96.46;101280.63;5008103;28;20231;-80
2023/06/25 04:00:02;;;;;;;7.70;6.90;;;;;;;16.78;96.88;101285.75;5004023;28;20243;-80
2023/06/25 04:02:29;;;;;;;8.60;6.53;;;;;;;16.81;97.09;101283.69;5003670;28;20277;-80
2023/06/25 04:04:55;;;;;;;9.17;7.00;;;;;;;16.85;97.29;101282.44;5003790;28;20594;-80
2023/06/25 04:07:21;;;;;;;8.60;6.87;;;;;;;16.87;97.49;101272.41;5002636;28;20233;-80
2023/06/25 04:09:48;;;;;;;7.43;6.63;;;;;;;16.91;97.50;101279.28;5006032;28;20692;-80
2023/06/25 04:12:14;;;;;;;8.63;7.17;;;;;;;16.93;97.54;101274.63;5006887;28;20463;-80
2023/06/25 04:14:42;;;;;;;8.90;7.20;;;;;;;16.96;97.63;101274.38;5007972;28;20213;-81
2023/06/25 04:17:09;;;;;;;11.97;8.37;;;;;;;16.97;97.53;101273.41;5004512;28;20221;-80
2023/06/25 04:19:36;;;;;;;9.93;7.90;;;;;;;16.99;97.61;101279.53;5000765;28;20585;-80
2023/06/25 04:22:03;;;;;;;9.43;7.87;;;;;;;16.99;97.67;101274.16;5007847;28;20201;-81
2023/06/25 04:24:30;;;;;;;9.83;7.80;;;;;;;16.99;98.32;101273.28;5002133;28;20220;-81
2023/06/25 04:26:57;;;;;;;10.23;7.77;;;;;;;17.01;98.75;101276.72;5008135;28;20218;-81
2023/06/25 04:29:24;;;;;;;9.90;8.03;;;;;;;17.04;99.24;101275.59;5004344;28;20211;-80
2023/06/25 04:31:52;;;;;;;9.93;7.50;;;;;;;17.08;99.78;101271.69;5010225;28;20584;-80
2023/06/25 04:34:18;;;;;;;12.77;8.57;;;;;;;17.12;99.88;101276.69;5007060;28;20205;-80
2023/06/25 04:36:45;;;;;;;9.20;7.60;;;;;;;17.17;99.97;101277.19;5007307;28;20238;-80
2023/06/25 04:39:11;;;;;;;10.53;8.17;;;;;;;17.20;100.00;101276.06;5011892;28;20694;-81
2023/06/25 04:41:38;;;;;;;12.83;9.03;;;;;;;17.22;100.00;101274.09;5004158;28;20216;-80
2023/06/25 04:44:04;;;;;;;15.10;8.90;;;;;;;17.25;100.00;101263.94;5006170;28;20224;-80
2023/06/25 04:46:31;;;;;;;12.53;8.93;;;;;;;17.25;100.00;101268.47;5009306;28;20202;-81
2023/06/25 04:48:59;;;;;;;11.93;8.50;;;;;;;17.28;100.00;101274.47;5011239;28;20731;-81
2023/06/25 04:51:25;;;;;;;10.00;8.20;;;;;;;17.32;100.00;101267.00;5007445;28;20261;-80
2023/06/25 04:53:52;;;;;;;11.30;9.13;;;;;;;17.35;100.00;101273.00;5004899;28;20250;-81
2023/06/25 04:56:18;;;;;;;8.67;7.80;;;;;;;17.39;100.00;101261.94;5007375;28;20233;-80
2023/06/25 04:58:45;;;;;;;10.03;8.60;;;;;;;17.43;100.00;101266.13;5009728;28;20582;-80
2023/06/25 05:01:12;;;;;;;11.47;8.57;;;;;;;17.46;100.00;101263.19;5005608;28;20259;-80
2023/06/25 05:03:38;;;;;;;8.63;7.83;;;;;;;17.51;99.90;101266.34;5005291;28;20640;-80
2023/06/25 05:06:06;;;;;;;10.20;8.33;;;;;;;17.56;100.00;101269.50;5003373;28;20922;-81
2023/06/25 05:08:33;;;;;;;8.60;7.67;;;;;;;17.60;99.92;101254.81;5007455;28;20593;-81
2023/06/25 05:10:59;;;;;;;11.00;8.07;;;;;;;17.67;99.71;101266.81;5008560;28;20242;-80
2023/06/25 05:13:26;;;;;;;8.90;7.90;;;;;;;17.75;99.97;101260.78;5002575;28;20217;-81
2023/06/25 05:15:52;;;;;;;10.67;7.73;;;;;;;17.82;99.73;101268.22;5005648;28;20697;-81
2023/06/25 05:18:19;;;;;;;10.10;9.00;;;;;;;17.90;99.90;101267.59;5003052;28;20235;-81
2023/06/25 05:20:45;;;;;;;9.90;7.90;;;;;;;17.99;99.75;101262.28;5010231;28;20238;-81
2023/06/25 05:23:13;;;;;;;8.10;7.30;;;;;;;18.07;99.86;101258.09;5002345;28;20215;-80
2023/06/25 05:25:39;;;;;;;14.47;8.20;;;;;;;18.16;99.86;101259.97;5007600;28;20224;-80
2023/06/25 05:28:06;;;;;;;7.90;7.13;;;;;;;18.27;100.00;101251.84;5001600;28;20589;-81
2023/06/25 05:30:33;;;;;;;8.13;7.40;;;;;;;18.37;100.00;101253.59;5002269;28;20632;-80
2023/06/25 05:32:59;;;;;;;8.30;7.30;;;;;;;18.47;99.63;101255.47;5002647;28;20274;-81
2023/06/25 05:35:28;;;;;;;9.27;6.97;;;;;;;18.57;99.40;101259.97;5010140;28;20208;-81
2023/06/25 05:37:55;;;;;;;9.47;7.40;;;;;;;18.71;99.55;101253.38;5006988;28;20243;-81
2023/06/25 05:40:23;;;;;;;8.53;6.80;;;;;;;18.86;99.96;101253.88;5005145;28;20244;-81
2023/06/25 05:42:50;;;;;;;9.37;7.30;;;;;;;19.01;99.94;101255.19;5008937;28;20305;-82
2023/06/25 05:45:16;;;;;;;9.03;7.13;;;;;;;19.16;99.59;101259.25;5002773;28;20578;-81
2023/06/25 05:47:43;;;;;;;10.10;6.67;;;;;;;19.31;98.47;101259.72;5008672;28;20233;-81
2023/06/25 05:50:11;;;;;;;7.97;7.27;;;;;;;19.45;97.83;101258.47;5005319;28;20694;-81
2023/06/25 05:52:37;;;;;;;9.07;7.37;;;;;;;19.59;97.57;101256.22;5004143;28;20400;-81
2023/06/25 05:55:04;;;;;;;7.80;6.77;;;;;;;19.72;96.49;101251.41;5006543;28;20583;-82
2023/06/25 05:57:32;;;;;;;9.40;7.20;;;;;;;19.88;95.68;101250.00;5000858;28;20233;-81
2023/06/25 05:59:59;;;;;;;7.13;6.20;;;;;;;19.99;93.53;101247.13;5004074;28;20724;-81
2023/06/25 06:02:25;;;;;;;7.63;6.43;;;;;;;20.11;92.92;101240.56;5003521;28;20587;-81
2023/06/25 06:04:52;;;;;;;7.30;5.97;;;;;;;20.26;91.45;101243.69;5006887;28;20815;-81
2023/06/25 06:07:18;;;;;;;10.53;6.60;;;;;;;20.40;90.23;101251.41;5006424;28;20237;-81
2023/06/25 06:09:45;;;;;;;6.83;6.23;;;;;;;20.54;89.99;101245.50;5008771;28;20234;-82
2023/06/25 06:12:11;;;;;;;8.48;5.90;;;;;;;20.72;88.89;101249.16;5005551;28;20207;-81
2023/06/25 06:14:40;;;;;;;7.20;5.22;;;;;;;20.91;87.52;101247.38;5007381;28;20218;-81
2023/06/25 06:17:06;;;;;;;6.40;5.50;;;;;;;21.07;86.03;101250.28;5005694;28;20245;-82
2023/06/25 06:19:33;;;;;;;6.13;5.50;;;;;;;21.24;84.43;101246.78;5000612;28;20238;-81
2023/06/25 06:21:59;;;;;;;6.93;5.32;;;;;;;21.41;82.69;101243.25;5006522;28;20578;-81
2023/06/25 06:24:27;;;;;;;6.32;5.30;;;;;;;21.55;80.88;101241.88;5003381;28;20210;-82
2023/06/25 06:26:54;;;;;;;7.18;5.78;;;;;;;21.68;80.24;101244.19;5008420;28;20241;-82
2023/06/25 06:29:20;;;;;;;8.50;6.15;;;;;;;21.85;80.19;101248.81;4997399;28;20211;-82
2023/06/25 06:31:48;;;;;;;6.15;4.88;;;;;;;22.03;79.82;101244.25;5002341;28;20293;-82
2023/06/25 06:34:14;;;;;;;6.82;5.65;;;;;;;22.23;79.93;101239.44;5004630;28;20210;-82
2023/06/25 06:36:41;;;;;;;8.13;6.53;;;;;;;22.47;79.86;101244.22;5000313;28;20210;-82
2023/06/25 06:39:07;;;;;;;7.93;5.93;;;;;;;22.67;79.54;101240.28;5000395;28;20202;-82
2023/06/25 06:41:34;;;;;;;6.45;5.85;;;;;;;22.85;78.86;101232.94;5002263;28;20718;-82
2023/06/25 06:44:11;;;;;;;6.18;5.18;;;;;;;23.06;78.58;101237.09;5001193;28;20217;-82
2023/06/25 06:46:40;;;;;;;5.82;5.32;;;;;;;23.20;75.81;101241.91;5001390;28;20210;-82
2023/06/25 06:49:08;;;;;;;8.30;5.47;;;;;;;23.30;75.24;101245.31;4999046;28;20203;-81
2023/06/25 06:51:36;;;;;;;7.35;5.75;;;;;;;23.48;76.01;101239.75;5005259;28;20717;-82
2023/06/25 06:54:02;;;;;;;5.43;4.90;;;;;;;23.64;74.87;101233.56;5003550;28;20222;-81
2023/06/25 06:56:29;;;;;;;6.00;5.50;;;;;;;23.80;74.11;101236.28;5002531;28;20213;-81
2023/06/25 06:58:55;;;;;;;6.35;5.60;;;;;;;23.95;73.76;101239.19;5007207;28;20235;-82
2023/06/25 07:01:22;;;;;;;5.60;5.07;;;;;;;24.10;73.14;101229.31;5003899;28;20257;-81
2023/06/25 07:03:48;;;;;;;6.22;5.43;;;;;;;24.29;73.03;101239.03;5005566;28;20763;-81
2023/06/25 07:06:16;;;;;;;5.45;4.95;;;;;;;24.41;70.80;101238.50;5002449;28;20200;-81
2023/06/25 07:08:42;;;;;;;6.68;4.85;;;;;;;24.53;71.30;101241.72;5004807;28;20209;-81
2023/06/25 07:11:09;;;;;;;5.10;4.45;;;;;;;24.69;69.71;101233.50;5003837;28;20223;-81
2023/06/25 07:13:35;;;;;;;6.10;4.97;;;;;;;24.76;67.86;101230.91;5005160;28;20209;-81
2023/06/25 07:16:02;;;;;;;5.22;4.43;;;;;;;24.88;66.40;101232.25;5002769;28;20210;-81
2023/06/25 07:18:28;;;;;;;5.22;4.82;;;;;;;25.03;66.66;101235.97;5007874;28;20661;-81
2023/06/25 07:20:55;;;;;;;5.25;4.63;;;;;;;25.23;66.76;101225.47;5004017;28;20723;-82
2023/06/25 07:23:22;;;;;;;5.53;4.88;;;;;;;25.39;66.60;101222.66;5002606;28;20215;-81
2023/06/25 07:25:49;;;;;;;5.78;4.47;;;;;;;25.57;66.25;101223.22;5001726;28;20214;-82
2023/06/25 07:28:15;;;;;;;4.55;4.15;;;;;;;25.72;64.07;101222.47;5003416;28;20203;-82
2023/06/25 07:30:42;;;;;;;4.57;3.90;;;;;;;25.83;62.72;101224.75;5006777;28;20226;-82
2023/06/25 07:33:08;;;;;;;5.90;3.95;;;;;;;25.92;59.59;101221.78;5008738;28;20206;-82
2023/06/25 07:35:35;;;;;;;4.50;4.10;;;;;;;26.02;59.48;101207.88;5000371;28;20206;-81
2023/06/25 07:38:01;;;;;;;5.97;3.78;;;;;;;26.18;59.09;101215.91;5001834;28;20695;-82
2023/06/25 07:40:29;;;;;;;4.00;3.65;;;;;;;26.30;57.32;101212.78;5003212;28;20597;-81
2023/06/25 07:42:55;;;;;;;4.32;3.92;;;;;;;26.41;56.62;101220.50;5006047;28;20211;-82
2023/06/25 07:45:23;;;;;;;4.25;3.85;;;;;;;26.48;55.91;101219.59;5004377;28;20221;-81
2023/06/25 07:47:49;;;;;;;4.05;3.70;;;;;;;26.62;55.97;101220.63;5007140;28;20261;-82
2023/06/25 07:50:16;;;;;;;5.65;3.58;;;;;;;26.74;54.97;101219.13;5010424;28;20241;-81
2023/06/25 07:52:42;;;;;;;4.13;3.78;;;;;;;26.87;54.08;101221.22;5004408;28;20213;-82
2023/06/25 07:55:09;;;;;;;4.70;4.07;;;;;;;26.99;53.45;101213.41;5005297;28;20211;-81
2023/06/25 07:57:37;;;;;;;3.88;3.58;;;;;;;27.15;53.92;101213.19;5008928;28;20226;-81
2023/06/25 08:00:04;;;;;;;4.40;3.80;;;;;;;27.31;53.22;101213.78;5007055;28;20223;-81
2023/06/25 08:02:31;;;;;;;3.90;3.60;;;;;;;27.41;52.30;101210.72;5009547;28;20584;-81
2023/06/25 08:04:58;;;;;;;4.15;3.75;;;;;;;27.50;52.20;101212.31;5010586;28;20207;-81
2023/06/25 08:07:27;;;;;;;4.40;3.83;;;;;;;27.62;51.36;101207.22;5004430;28;20206;-82
2023/06/25 08:09:54;;;;;;;4.82;3.85;;;;;;;27.74;50.15;101207.56;5006169;28;20234;-81
2023/06/25 08:12:20;;;;;;;4.13;3.72;;;;;;;27.83;49.54;101200.88;5001198;28;20621;-82
2023/06/25 08:14:48;;;;;;;3.78;3.47;;;;;;;27.96;48.96;101206.47;5007081;28;20222;-81
2023/06/25 08:17:14;;;;;;;4.05;3.70;;;;;;;28.04;47.03;101209.09;5007227;28;20214;-82
2023/06/25 08:19:41;;;;;;;5.32;3.55;;;;;;;28.14;45.85;101201.34;5005265;28;20234;-81
2023/06/25 08:22:07;;;;;;;4.28;3.63;;;;;;;28.30;45.61;101203.00;5008266;28;20203;-81
2023/06/25 08:24:34;;;;;;;5.32;3.60;;;;;;;28.43;43.79;101196.78;5005738;28;20202;-81
2023/06/25 08:27:00;;;;;;;4.35;3.65;;;;;;;28.57;43.58;101191.16;5010570;28;20199;-81
2023/06/25 08:29:27;;;;;;;4.22;3.78;;;;;;;28.67;42.04;101190.78;5007157;28;20612;-81
2023/06/25 08:31:55;;;;;;;3.78;3.45;;;;;;;28.76;42.93;101192.31;5002932;28;20211;-81
2023/06/25 08:34:21;;;;;;;4.32;3.92;;;;;;;28.85;42.79;101185.63;5011050;28;20210;-81
2023/06/25 08:36:47;;;;;;;4.18;3.78;;;;;;;28.97;42.04;101191.41;5005410;28;20609;-81
2023/06/25 08:39:14;;;;;;;5.07;3.80;;;;;;;29.09;41.39;101186.16;5005191;28;20223;-81
2023/06/25 08:41:40;;;;;;;4.30;3.90;;;;;;;29.21;42.32;101185.38;5006550;28;20223;-81
2023/06/25 08:44:07;;;;;;;3.90;3.60;;;;;;;29.30;41.42;101188.78;5009722;28;20802;-82
2023/06/25 08:46:35;;;;;;;3.70;3.40;;;;;;;29.45;40.88;101191.38;5003367;28;20207;-81
2023/06/25 08:49:04;;;;;;;4.72;4.03;;;;;;;29.59;40.35;101191.19;5008257;28;20688;-81
2023/06/25 08:51:32;;;;;;;4.55;4.15;;;;;;;29.72;41.13;101186.78;5003347;28;20225;-81
2023/06/25 08:53:58;;;;;;;3.90;3.47;;;;;;;29.77;40.78;101181.50;5005347;28;20202;-82
2023/06/25 08:56:25;;;;;;;4.05;3.28;;;;;;;29.84;40.68;101190.59;5010451;28;20578;-82
2023/06/25 08:58:51;;;;;;;4.20;3.85;;;;;;;29.91;39.57;101180.47;5007741;28;20226;-82
2023/06/25 09:01:18;;;;;;;5.75;3.90;;;;;;;29.94;40.10;101180.03;5005236;28;20223;-82
2023/06/25 09:03:44;;;;;;;4.38;3.83;;;;;;;30.00;40.72;101173.72;5003831;28;20210;-82
2023/06/25 09:06:16;;;;;;;4.38;3.97;;;;;;;30.04;40.18;101166.75;5005589;28;20580;-82
2023/06/25 09:08:44;;;;;;;4.22;3.75;;;;;;;30.05;38.74;101171.19;5008793;28;20202;-82
2023/06/25 09:11:11;;;;;;;4.07;3.78;;;;;;;30.06;38.76;101164.66;5005980;28;20226;-81
2023/06/25 09:13:39;;;;;;;4.20;3.88;;;;;;;30.11;38.26;101164.84;5006219;28;20211;-81
2023/06/25 09:16:07;;;;;;;4.28;3.53;;;;;;;30.11;38.43;101162.09;5009894;28;20673;-81
2023/06/25 09:18:37;;;;;;;3.83;3.53;;;;;;;30.11;38.96;101155.75;5008372;28;20230;-81
2023/06/25 09:21:05;;;;;;;4.25;3.78;;;;;;;30.13;39.01;101153.63;5005389;28;20708;-81
2023/06/25 09:23:35;;;;;;;4.35;3.53;;;;;;;30.21;39.29;101158.94;5007841;28;20215;-81
2023/06/25 09:26:05;;;;;;;4.03;3.65;;;;;;;30.32;39.85;101158.25;5006457;28;20215;-82
2023/06/25 09:28:32;;;;;;;4.55;3.65;;;;;;;30.39;38.92;101148.13;5004122;28;20206;-81
2023/06/25 09:30:59;;;;;;;4.65;3.75;;;;;;;30.46;38.58;101146.16;5003006;28;20230;-82
2023/06/25 09:33:32;;;;;;;4.05;3.75;;;;;;;30.50;38.80;101138.34;5006791;28;20217;-79
2023/06/25 09:36:00;;;;;;;4.03;3.63;;;;;;;30.53;38.67;101137.91;5004553;28;20234;-82
2023/06/25 09:38:26;;;;;;;4.10;3.40;;;;;;;30.57;37.96;101134.56;5005267;28;20237;-82
2023/06/25 09:40:57;;;;;;;3.80;3.50;;;;;;;30.63;37.85;101141.97;5004507;28;20227;-81
2023/06/25 09:43:25;;;;;;;3.90;3.60;;;;;;;30.69;37.64;101138.31;5008756;28;20215;-81
2023/06/25 09:45:52;;;;;;;4.53;4.15;;;;;;;30.68;36.94;101139.38;4998259;28;20210;-80
2023/06/25 09:48:23;;;;;;;3.72;3.42;;;;;;;30.63;37.17;101128.22;5004603;28;20218;-81
2023/06/25 09:50:51;;;;;;;4.00;3.70;;;;;;;30.66;37.69;101130.50;5008377;28;20723;-81
2023/06/25 09:53:26;;;;;;;3.85;3.55;;;;;;;30.66;37.36;101132.41;5003897;28;20207;-81
2023/06/25 09:55:54;;;;;;;3.88;3.58;;;;;;;30.61;38.04;101124.81;5007854;28;20211;-81
2023/06/25 09:58:22;;;;;;;4.32;4.03;;;;;;;30.68;37.40;101130.28;5003794;28;20222;-81
2023/06/25 10:00:50;;;;;;;3.88;3.58;;;;;;;30.70;37.27;101126.25;5000787;28;20313;-81
2023/06/25 10:03:20;;;;;;;4.07;3.42;;;;;;;30.69;36.93;101135.56;5006658;28;20792;-81
2023/06/25 10:05:47;;;;;;;4.35;3.72;;;;;;;30.73;36.47;101131.31;5007797;28;20211;-81
2023/06/25 10:08:13;;;;;;;3.70;3.38;;;;;;;30.77;36.93;101128.16;5002903;28;20199;-81
2023/06/25 10:10:40;;;;;;;4.95;3.75;;;;;;;30.81;36.51;101122.00;5004127;28;20598;-81
2023/06/25 10:13:09;;;;;;;3.97;3.67;;;;;;;30.82;36.30;101123.66;5003283;28;20628;-82
2023/06/25 10:15:37;;;;;;;4.55;3.78;;;;;;;30.87;37.08;101121.09;5003413;28;20661;-81
2023/06/25 10:18:04;;;;;;;4.43;4.10;;;;;;;30.97;36.67;101120.66;5005591;28;20226;-81
2023/06/25 10:20:33;;;;;;;3.97;3.67;;;;;;;31.04;36.94;101119.53;5001435;28;20227;-82
2023/06/25 10:23:05;;;;;;;4.85;3.78;;;;;;;31.15;36.93;101117.19;5001958;28;20581;-80
2023/06/25 10:25:32;;;;;;;4.07;3.78;;;;;;;31.23;37.00;101114.16;5008299;28;20198;-86
2023/06/25 10:28:06;;;;;;;3.75;3.45;;;;;;;31.30;36.66;101120.47;5002789;28;20234;-84
2023/06/25 10:30:40;;;;;;;4.30;3.92;;;;;;;31.30;35.88;101109.47;5006037;28;20901;-85
2023/06/25 10:33:07;;;;;;;4.38;3.83;;;;;;;31.29;35.67;101105.88;5004493;28;20708;-84
2023/06/25 10:35:40;;;;;;;5.65;3.92;;;;;;;31.20;35.78;101098.09;5010836;28;20630;-84
2023/06/25 10:38:10;;;;;;;4.38;4.07;;;;;;;31.17;35.96;101102.16;5007425;28;20628;-86
2023/06/25 10:40:38;;;;;;;3.95;3.65;;;;;;;31.20;36.97;101096.19;5009208;28;20840;-85
2023/06/25 10:43:05;;;;;;;4.60;3.92;;;;;;;31.17;36.38;101104.91;5014749;28;20207;-85
2023/06/25 10:45:32;;;;;;;4.05;3.67;;;;;;;31.02;35.68;101096.91;5008710;28;20215;-85
2023/06/25 10:48:08;;;;;;;4.20;3.90;;;;;;;30.87;35.66;101099.09;5010446;28;20577;-85
2023/06/25 10:50:36;;;;;;;4.25;3.80;;;;;;;30.72;37.22;101095.78;5006565;28;20218;-85
2023/06/25 10:53:03;;;;;;;4.10;3.70;;;;;;;30.69;37.27;101099.81;5009557;28;20665;-85
2023/06/25 10:55:30;;;;;;;4.20;3.90;;;;;;;30.77;36.92;101096.00;5007473;28;20707;-85
2023/06/25 10:57:57;;;;;;;4.53;4.13;;;;;;;30.81;36.75;101088.16;5001698;28;20218;-84
2023/06/25 11:00:24;;;;;;;4.20;3.80;;;;;;;30.86;36.72;101091.91;5003136;28;20231;-84
2023/06/25 11:02:52;;;;;;;4.28;3.90;;;;;;;30.94;37.31;101088.06;5011535;28;20202;-86
2023/06/25 11:05:21;;;;;;;4.22;3.92;;;;;;;30.97;37.10;101088.47;5001499;28;20207;-86
2023/06/25 11:07:54;;;;;;;4.25;3.80;;;;;;;31.02;37.18;101085.91;5004280;28;20262;-85
2023/06/25 11:10:22;;;;;;;4.32;4.03;;;;;;;31.02;36.79;101085.06;5003693;28;20280;-84
2023/06/25 11:12:55;;;;;;;4.22;3.92;;;;;;;31.06;37.06;101078.03;5011393;28;20207;-85
2023/06/25 11:15:21;;;;;;;4.50;4.10;;;;;;;31.19;37.20;101075.22;5013317;28;20198;-85
2023/06/25 11:17:52;;;;;;;4.38;3.97;;;;;;;31.34;37.10;101073.03;5006519;28;20290;-85
2023/06/25 11:20:22;;;;;;;4.55;4.10;;;;;;;31.46;36.49;101070.38;5002909;28;20256;-85
2023/06/25 11:22:49;;;;;;;4.53;4.13;;;;;;;31.55;36.17;101055.25;5001152;28;20213;-86
2023/06/25 11:25:21;;;;;;;5.75;4.50;;;;;;;31.58;36.79;101063.06;5011388;28;20217;-85